Time;durP1;ratioP1;P1;durP2;ratioP2;P2;SDS_P1;SDS_P2;PMS_P1;PMS_P2;Temp;Humidity;BMP_temperature;BMP_pressure;BME280_temperature;BME280_humidity;BME280_pressure;Samples;Min_cycle;Max_cycle;Signal;HPM_P1;HPM_P2
2024/01/16 00:00:56;;;;;;;7.57;4.13;;;;;;;;;;5100989;28;20456;-74
2024/01/16 00:03:21;;;;;;;6.93;3.88;;;;;;;;;;5107049;28;20119;-74
2024/01/16 00:05:46;;;;;;;9.87;4.13;;;;;;;;;;5099959;28;20020;-74
2024/01/16 00:08:11;;;;;;;9.50;4.03;;;;;;;;;;5106537;28;20659;-74
2024/01/16 00:10:36;;;;;;;12.40;4.50;;;;;;;;;;5101616;28;20023;-74
2024/01/16 00:13:02;;;;;;;11.67;5.03;;;;;;;;;;5103484;28;20281;-74
2024/01/16 00:15:27;;;;;;;12.63;4.90;;;;;;;;;;5103587;28;20265;-74
2024/01/16 00:17:53;;;;;;;14.82;5.00;;;;;;;;;;5102134;28;20012;-74
2024/01/16 00:20:18;;;;;;;9.95;4.60;;;;;;;;;;5103436;28;20011;-75
2024/01/16 00:22:43;;;;;;;9.00;5.28;;;;;;;;;;5101968;28;20375;-74
2024/01/16 00:25:09;;;;;;;10.17;5.83;;;;;;;;;;5104239;28;20470;-75
2024/01/16 00:27:34;;;;;;;13.52;6.28;;;;;;;;;;5102034;28;20329;-74
2024/01/16 00:29:59;;;;;;;14.48;6.38;;;;;;;;;;5103780;28;20042;-74
2024/01/16 00:32:25;;;;;;;11.53;5.53;;;;;;;;;;5104257;28;20026;-74
2024/01/16 00:34:50;;;;;;;11.48;5.40;;;;;;;;;;5105871;28;20335;-74
2024/01/16 00:37:16;;;;;;;11.25;4.88;;;;;;;;;;5104186;28;20051;-74
2024/01/16 00:39:41;;;;;;;14.48;6.10;;;;;;;;;;5102946;28;20069;-75
2024/01/16 00:42:06;;;;;;;10.07;5.03;;;;;;;;;;5102205;28;20040;-74
2024/01/16 00:44:32;;;;;;;12.02;5.72;;;;;;;;;;5105862;28;20331;-74
2024/01/16 00:46:57;;;;;;;14.23;5.53;;;;;;;;;;5100850;28;20020;-74
2024/01/16 00:49:22;;;;;;;11.05;5.40;;;;;;;;;;5107477;28;20254;-74
2024/01/16 00:51:47;;;;;;;12.10;4.33;;;;;;;;;;5102201;28;20018;-75
2024/01/16 00:54:12;;;;;;;10.67;4.43;;;;;;;;;;5101299;28;20807;-74
2024/01/16 00:56:37;;;;;;;10.80;4.63;;;;;;;;;;5104116;28;20281;-74
2024/01/16 00:59:03;;;;;;;9.30;4.57;;;;;;;;;;5109121;28;20028;-74
2024/01/16 01:01:28;;;;;;;12.60;4.40;;;;;;;;;;5106654;28;20027;-74
2024/01/16 01:03:53;;;;;;;11.70;4.00;;;;;;;;;;5107575;28;20035;-75
2024/01/16 01:06:18;;;;;;;10.77;4.70;;;;;;;;;;5105024;28;20689;-75
2024/01/16 01:08:44;;;;;;;15.68;5.30;;;;;;;;;;5107929;28;20024;-74
2024/01/16 01:11:09;;;;;;;13.05;4.78;;;;;;;;;;5104505;28;20028;-74
2024/01/16 01:13:34;;;;;;;10.60;4.40;;;;;;;;;;5104473;28;20023;-74
2024/01/16 01:16:00;;;;;;;11.18;4.18;;;;;;;;;;5108280;28;20646;-74
2024/01/16 01:18:25;;;;;;;11.93;4.80;;;;;;;;;;5107084;28;20020;-75
2024/01/16 01:20:50;;;;;;;9.55;4.78;;;;;;;;;;5106786;28;20049;-75
2024/01/16 01:23:16;;;;;;;13.32;4.50;;;;;;;;;;5106720;28;20383;-74
2024/01/16 01:25:41;;;;;;;11.97;3.67;;;;;;;;;;5104004;28;20457;-75
2024/01/16 01:28:06;;;;;;;12.07;4.18;;;;;;;;;;5107252;28;20318;-74
2024/01/16 01:30:32;;;;;;;16.30;4.30;;;;;;;;;;5105188;28;20011;-74
2024/01/16 01:32:57;;;;;;;7.63;3.40;;;;;;;;;;5106317;28;20024;-74
2024/01/16 01:35:22;;;;;;;13.00;3.47;;;;;;;;;;5107298;28;20023;-74
2024/01/16 01:37:47;;;;;;;7.88;3.80;;;;;;;;;;5103349;28;20023;-74
2024/01/16 01:40:14;;;;;;;11.70;3.30;;;;;;;;;;5106765;28;20043;-75
2024/01/16 01:42:40;;;;;;;11.38;3.92;;;;;;;;;;5106169;28;20780;-75
2024/01/16 01:45:06;;;;;;;11.55;3.30;;;;;;;;;;5104601;28;20049;-75
2024/01/16 01:47:32;;;;;;;9.73;4.88;;;;;;;;;;5108760;28;20464;-75
2024/01/16 01:49:58;;;;;;;7.82;3.78;;;;;;;;;;5103756;28;20020;-74
2024/01/16 01:52:23;;;;;;;13.60;4.45;;;;;;;;;;5110383;28;20459;-74
2024/01/16 01:54:48;;;;;;;10.98;3.90;;;;;;;;;;5103114;28;20031;-74
2024/01/16 01:57:14;;;;;;;8.82;3.67;;;;;;;;;;5110930;28;20067;-74
2024/01/16 01:59:39;;;;;;;9.88;4.15;;;;;;;;;;5102560;28;20047;-74
2024/01/16 02:02:04;;;;;;;8.05;3.63;;;;;;;;;;5110319;28;20027;-74
2024/01/16 02:04:30;;;;;;;9.93;3.05;;;;;;;;;;5103269;28;20019;-74
2024/01/16 02:06:56;;;;;;;8.45;3.45;;;;;;;;;;5108686;28;20062;-75
2024/01/16 02:09:22;;;;;;;10.13;3.28;;;;;;;;;;5104739;28;20043;-75
2024/01/16 02:11:47;;;;;;;13.90;3.78;;;;;;;;;;5105934;28;20019;-75
2024/01/16 02:14:12;;;;;;;10.67;4.00;;;;;;;;;;5106393;28;20454;-75
2024/01/16 02:16:38;;;;;;;9.43;3.27;;;;;;;;;;5104692;28;20308;-75
2024/01/16 02:19:04;;;;;;;6.47;3.58;;;;;;;;;;5105482;28;20349;-75
2024/01/16 02:21:32;;;;;;;12.43;4.75;;;;;;;;;;5106209;28;20102;-75
2024/01/16 02:23:57;;;;;;;16.55;4.32;;;;;;;;;;5104343;28;20106;-75
2024/01/16 02:26:22;;;;;;;9.57;4.38;;;;;;;;;;5105495;28;20108;-75
2024/01/16 02:28:48;;;;;;;10.15;4.45;;;;;;;;;;5104006;28;20110;-75
2024/01/16 02:31:13;;;;;;;17.73;4.60;;;;;;;;;;5106407;28;20170;-75
2024/01/16 02:33:38;;;;;;;12.63;4.43;;;;;;;;;;5104107;28;20019;-75
2024/01/16 02:36:03;;;;;;;16.13;4.93;;;;;;;;;;5107145;28;20473;-74
2024/01/16 02:38:29;;;;;;;10.75;4.28;;;;;;;;;;5101839;28;20491;-75
2024/01/16 02:40:54;;;;;;;9.07;4.30;;;;;;;;;;5103270;28;20016;-74
2024/01/16 02:43:19;;;;;;;10.40;5.03;;;;;;;;;;5105504;28;20035;-75
2024/01/16 02:45:44;;;;;;;14.33;5.07;;;;;;;;;;5105227;28;20350;-75
2024/01/16 02:48:09;;;;;;;11.60;4.25;;;;;;;;;;5103783;28;20277;-75
2024/01/16 02:50:35;;;;;;;10.52;3.78;;;;;;;;;;5107557;28;20016;-75
2024/01/16 02:53:00;;;;;;;7.95;3.50;;;;;;;;;;5106438;28;20051;-75
2024/01/16 02:55:25;;;;;;;15.13;3.60;;;;;;;;;;5109358;28;20095;-75
2024/01/16 02:57:50;;;;;;;14.20;4.13;;;;;;;;;;5103802;28;20062;-75
2024/01/16 03:00:16;;;;;;;13.40;3.85;;;;;;;;;;5109934;28;20475;-75
2024/01/16 03:02:42;;;;;;;11.93;4.07;;;;;;;;;;5101069;28;20086;-75
2024/01/16 03:05:07;;;;;;;12.98;4.00;;;;;;;;;;5109514;28;20483;-75
2024/01/16 03:07:32;;;;;;;16.17;4.05;;;;;;;;;;5102195;28;20508;-75
2024/01/16 03:09:58;;;;;;;11.50;3.63;;;;;;;;;;5106425;28;20024;-75
2024/01/16 03:12:23;;;;;;;10.60;3.47;;;;;;;;;;5104840;28;20378;-74
2024/01/16 03:14:48;;;;;;;15.95;3.60;;;;;;;;;;5104453;28;20254;-75
2024/01/16 03:17:14;;;;;;;12.38;3.75;;;;;;;;;;5098986;28;20068;-75
2024/01/16 03:19:39;;;;;;;15.18;3.72;;;;;;;;;;5108173;28;20494;-75
2024/01/16 03:22:04;;;;;;;7.27;3.43;;;;;;;;;;5100808;28;20027;-75
2024/01/16 03:24:29;;;;;;;15.57;3.70;;;;;;;;;;5107965;28;20358;-74
2024/01/16 03:26:54;;;;;;;17.10;3.80;;;;;;;;;;5101921;28;20266;-74
2024/01/16 03:29:20;;;;;;;11.07;3.33;;;;;;;;;;5105249;28;20024;-74
2024/01/16 03:31:45;;;;;;;10.65;3.85;;;;;;;;;;5103677;28;20362;-75
2024/01/16 03:34:10;;;;;;;8.10;3.63;;;;;;;;;;5104091;28;20118;-75
2024/01/16 03:36:36;;;;;;;12.70;4.18;;;;;;;;;;5104023;28;20031;-75
2024/01/16 03:39:01;;;;;;;10.85;4.28;;;;;;;;;;5102397;28;20016;-74
2024/01/16 03:41:26;;;;;;;12.82;3.95;;;;;;;;;;5104547;28;20489;-75
2024/01/16 03:43:56;;;;;;;19.20;4.90;;;;;;;;;;5100782;28;20023;-75
2024/01/16 03:46:21;;;;;;;21.38;5.82;;;;;;;;;;5100868;28;20336;-75
2024/01/16 03:48:47;;;;;;;19.33;6.18;;;;;;;;;;5104621;28;20107;-75
2024/01/16 03:51:15;;;;;;;23.73;8.13;;;;;;;;;;5108636;28;20098;-75
2024/01/16 03:53:40;;;;;;;21.13;8.43;;;;;;;;;;5105771;28;20277;-75
2024/01/16 03:56:05;;;;;;;28.02;9.00;;;;;;;;;;5102836;28;20012;-75
2024/01/16 03:58:31;;;;;;;27.35;10.90;;;;;;;;;;5106101;28;20371;-75
2024/01/16 04:00:56;;;;;;;38.03;12.80;;;;;;;;;;5102676;28;20419;-75
2024/01/16 04:03:21;;;;;;;28.08;11.95;;;;;;;;;;5100196;28;20300;-75
2024/01/16 04:05:46;;;;;;;32.97;12.63;;;;;;;;;;5101568;28;20538;-75
2024/01/16 04:08:13;;;;;;;30.35;13.25;;;;;;;;;;5101726;28;20308;-75
2024/01/16 04:10:38;;;;;;;38.72;13.82;;;;;;;;;;5102064;28;20031;-75
2024/01/16 04:13:03;;;;;;;36.67;14.60;;;;;;;;;;5102831;28;20111;-74
2024/01/16 04:15:28;;;;;;;33.20;14.30;;;;;;;;;;5103908;28;20024;-75
2024/01/16 04:17:54;;;;;;;42.97;15.87;;;;;;;;;;5104733;28;20398;-75
2024/01/16 04:20:19;;;;;;;37.78;16.90;;;;;;;;;;5103046;28;20262;-75
2024/01/16 04:22:45;;;;;;;36.17;14.48;;;;;;;;;;5104051;28;20038;-75
2024/01/16 04:25:10;;;;;;;41.70;16.17;;;;;;;;;;5104583;28;20113;-75
2024/01/16 04:27:35;;;;;;;44.25;16.23;;;;;;;;;;5102843;28;20036;-75
2024/01/16 04:30:00;;;;;;;39.07;17.30;;;;;;;;;;5107483;28;20028;-75
2024/01/16 04:32:25;;;;;;;40.17;16.40;;;;;;;;;;5101989;28;20885;-75
2024/01/16 04:34:51;;;;;;;36.23;16.07;;;;;;;;;;5107638;28;20028;-75
2024/01/16 04:37:16;;;;;;;34.47;16.65;;;;;;;;;;5107648;28;20349;-75
2024/01/16 04:39:41;;;;;;;40.73;16.47;;;;;;;;;;5105290;28;20106;-75
2024/01/16 04:42:06;;;;;;;34.85;15.68;;;;;;;;;;5109849;28;20290;-75
2024/01/16 04:44:31;;;;;;;35.37;14.90;;;;;;;;;;5104972;28;20020;-75
2024/01/16 04:46:56;;;;;;;39.07;15.87;;;;;;;;;;5109942;28;20302;-75
2024/01/16 04:49:22;;;;;;;34.37;15.97;;;;;;;;;;5104860;28;20258;-75
2024/01/16 04:51:47;;;;;;;39.17;16.80;;;;;;;;;;5110752;28;20281;-75
2024/01/16 04:54:12;;;;;;;33.47;15.43;;;;;;;;;;5107019;28;20300;-74
2024/01/16 04:56:37;;;;;;;30.63;17.37;;;;;;;;;;5109285;28;20084;-75
2024/01/16 04:59:03;;;;;;;33.60;15.23;;;;;;;;;;5105703;28;20297;-75
2024/01/16 05:01:28;;;;;;;31.48;15.38;;;;;;;;;;5106799;28;20023;-75
2024/01/16 05:03:54;;;;;;;32.28;15.95;;;;;;;;;;5107869;28;20073;-75
2024/01/16 05:06:19;;;;;;;38.70;14.95;;;;;;;;;;5105904;27;20024;-75
2024/01/16 05:08:45;;;;;;;34.40;15.50;;;;;;;;;;5106683;28;20046;-75
2024/01/16 05:11:10;;;;;;;36.15;16.02;;;;;;;;;;5105802;28;20276;-74
2024/01/16 05:13:35;;;;;;;34.85;15.65;;;;;;;;;;5107782;28;20042;-75
2024/01/16 05:16:00;;;;;;;37.10;14.52;;;;;;;;;;5106409;28;20361;-75
2024/01/16 05:18:25;;;;;;;34.90;15.30;;;;;;;;;;5108492;28;20030;-75
2024/01/16 05:20:51;;;;;;;31.07;15.17;;;;;;;;;;5107085;28;20026;-75
2024/01/16 05:23:16;;;;;;;31.57;14.00;;;;;;;;;;5106387;28;20332;-75
2024/01/16 05:25:41;;;;;;;24.73;14.30;;;;;;;;;;5107171;28;20257;-75
2024/01/16 05:28:06;;;;;;;37.50;15.02;;;;;;;;;;5107532;28;20270;-74
2024/01/16 05:30:33;;;;;;;28.40;13.35;;;;;;;;;;5106483;28;20016;-75
2024/01/16 05:33:00;;;;;;;31.60;13.38;;;;;;;;;;5107170;28;20030;-75
2024/01/16 05:35:26;;;;;;;37.25;13.50;;;;;;;;;;5104481;28;20530;-75
2024/01/16 05:37:51;;;;;;;27.25;13.32;;;;;;;;;;5106092;28;20103;-75
2024/01/16 05:40:16;;;;;;;29.43;13.10;;;;;;;;;;5107372;28;20022;-75
2024/01/16 05:42:41;;;;;;;29.93;12.70;;;;;;;;;;5102646;28;20768;-75
2024/01/16 05:45:07;;;;;;;20.90;12.27;;;;;;;;;;5106102;28;20289;-75
2024/01/16 05:47:32;;;;;;;21.92;11.85;;;;;;;;;;5105851;28;20672;-75
2024/01/16 05:49:57;;;;;;;21.33;12.27;;;;;;;;;;5104480;28;20451;-74
2024/01/16 05:52:22;;;;;;;20.42;11.65;;;;;;;;;;5111348;28;20276;-75
2024/01/16 05:54:48;;;;;;;20.98;11.20;;;;;;;;;;5103674;28;20020;-74
2024/01/16 05:57:13;;;;;;;19.50;11.60;;;;;;;;;;5108909;28;20044;-74
2024/01/16 05:59:38;;;;;;;23.00;11.33;;;;;;;;;;5108695;28;20356;-75
2024/01/16 06:02:04;;;;;;;22.23;10.13;;;;;;;;;;5109364;28;20295;-74
2024/01/16 06:04:29;;;;;;;29.00;10.98;;;;;;;;;;5102702;28;20939;-74
2024/01/16 06:06:54;;;;;;;18.17;10.37;;;;;;;;;;5108269;28;20038;-74
2024/01/16 06:09:19;;;;;;;18.67;11.27;;;;;;;;;;5104443;28;20277;-74
2024/01/16 06:11:44;;;;;;;22.13;9.97;;;;;;;;;;5105844;28;20051;-75
2024/01/16 06:14:11;;;;;;;17.37;10.03;;;;;;;;;;5106616;28;20656;-74
2024/01/16 06:16:37;;;;;;;17.92;10.50;;;;;;;;;;5103404;28;20266;-74
2024/01/16 06:19:02;;;;;;;24.70;10.18;;;;;;;;;;5108326;28;20520;-74
2024/01/16 06:21:27;;;;;;;17.65;10.45;;;;;;;;;;5104596;28;20020;-74
2024/01/16 06:23:52;;;;;;;21.23;10.13;;;;;;;;;;5107270;28;20023;-74
2024/01/16 06:26:17;;;;;;;22.90;10.32;;;;;;;;;;5105465;28;20020;-74
2024/01/16 06:28:43;;;;;;;18.42;9.57;;;;;;;;;;5105655;28;20413;-74
2024/01/16 06:31:08;;;;;;;19.05;10.07;;;;;;;;;;5106256;28;20046;-74
2024/01/16 06:33:33;;;;;;;22.13;9.50;;;;;;;;;;5104367;28;20020;-74
2024/01/16 06:35:59;;;;;;;16.58;8.98;;;;;;;;;;5103839;28;20019;-74
2024/01/16 06:38:24;;;;;;;21.35;9.80;;;;;;;;;;5106166;28;20020;-74
2024/01/16 06:40:51;;;;;;;20.23;10.70;;;;;;;;;;5101938;28;20024;-74
2024/01/16 06:43:16;;;;;;;17.40;9.88;;;;;;;;;;5105995;28;20305;-75
2024/01/16 06:45:42;;;;;;;21.55;8.88;;;;;;;;;;5103140;28;20072;-75
2024/01/16 06:48:07;;;;;;;19.00;9.27;;;;;;;;;;5104943;28;20471;-74
2024/01/16 06:50:32;;;;;;;14.43;8.52;;;;;;;;;;5105350;28;20043;-74
2024/01/16 06:52:58;;;;;;;17.27;9.20;;;;;;;;;;5106172;28;20428;-74
2024/01/16 06:55:23;;;;;;;22.10;8.37;;;;;;;;;;5105280;28;20117;-74
2024/01/16 06:57:48;;;;;;;18.05;8.23;;;;;;;;;;5103094;28;20332;-74
2024/01/16 07:00:14;;;;;;;17.70;8.30;;;;;;;;;;5104256;28;20040;-74
2024/01/16 07:02:39;;;;;;;12.48;8.23;;;;;;;;;;5106245;28;20777;-74
2024/01/16 07:05:04;;;;;;;19.17;8.50;;;;;;;;;;5102853;28;20019;-74
2024/01/16 07:07:30;;;;;;;21.40;8.75;;;;;;;;;;5107415;28;20051;-74
2024/01/16 07:09:55;;;;;;;19.83;8.02;;;;;;;;;;5102071;28;20024;-74
2024/01/16 07:12:20;;;;;;;16.70;8.60;;;;;;;;;;5108973;28;20076;-74
2024/01/16 07:14:45;;;;;;;17.30;7.87;;;;;;;;;;5100853;28;20012;-74
2024/01/16 07:17:11;;;;;;;17.80;8.57;;;;;;;;;;5102887;28;20278;-74
2024/01/16 07:19:36;;;;;;;19.48;8.73;;;;;;;;;;5110017;28;20343;-74
2024/01/16 07:22:02;;;;;;;14.25;8.52;;;;;;;;;;5101019;28;20016;-74
2024/01/16 07:24:27;;;;;;;14.55;7.97;;;;;;;;;;5110469;28;20144;-74
2024/01/16 07:26:54;;;;;;;17.40;7.73;;;;;;;;;;5101409;28;20482;-74
2024/01/16 07:29:19;;;;;;;19.33;8.32;;;;;;;;;;5108889;28;20304;-74
2024/01/16 07:31:45;;;;;;;16.98;8.20;;;;;;;;;;5102071;28;20413;-74
2024/01/16 07:34:10;;;;;;;12.73;7.60;;;;;;;;;;5101479;28;20016;-74
2024/01/16 07:36:35;;;;;;;16.25;8.55;;;;;;;;;;5106491;28;20332;-74
2024/01/16 07:39:00;;;;;;;19.30;9.47;;;;;;;;;;5101248;28;20052;-74
2024/01/16 07:41:25;;;;;;;16.75;8.60;;;;;;;;;;5106148;28;20744;-74
2024/01/16 07:43:50;;;;;;;18.47;9.00;;;;;;;;;;5101744;28;20023;-74
2024/01/16 07:46:16;;;;;;;16.40;9.20;;;;;;;;;;5103983;28;20308;-74
2024/01/16 07:48:41;;;;;;;14.10;8.68;;;;;;;;;;5104763;28;20281;-74
2024/01/16 07:51:06;;;;;;;13.88;8.88;;;;;;;;;;5101351;28;20012;-75
2024/01/16 07:53:31;;;;;;;14.27;9.25;;;;;;;;;;5108246;28;20012;-74
2024/01/16 07:55:57;;;;;;;19.37;8.90;;;;;;;;;;5102133;28;20464;-75
2024/01/16 07:58:22;;;;;;;19.05;9.40;;;;;;;;;;5103920;28;20391;-74
2024/01/16 08:00:48;;;;;;;21.38;10.68;;;;;;;;;;5103099;28;20382;-74
2024/01/16 08:03:14;;;;;;;19.02;8.82;;;;;;;;;;5102843;28;20393;-74
2024/01/16 08:05:39;;;;;;;13.93;7.72;;;;;;;;;;5104078;28;20523;-74
2024/01/16 08:08:05;;;;;;;20.38;8.82;;;;;;;;;;5101755;28;20158;-74
2024/01/16 08:10:30;;;;;;;17.55;8.63;;;;;;;;;;5103923;28;20016;-74
2024/01/16 08:12:56;;;;;;;20.23;8.00;;;;;;;;;;5103604;28;20415;-74
2024/01/16 08:15:21;;;;;;;15.65;8.48;;;;;;;;;;5102743;28;20024;-74
2024/01/16 08:17:47;;;;;;;19.70;8.45;;;;;;;;;;5104160;28;20027;-74
2024/01/16 08:20:12;;;;;;;18.33;8.50;;;;;;;;;;5106921;28;20066;-74
2024/01/16 08:22:38;;;;;;;17.33;7.97;;;;;;;;;;5098604;28;20092;-74
2024/01/16 08:25:04;;;;;;;18.77;9.55;;;;;;;;;;5105196;28;20073;-74
2024/01/16 08:27:30;;;;;;;14.10;8.13;;;;;;;;;;5102296;28;20063;-74
2024/01/16 08:29:55;;;;;;;15.77;8.02;;;;;;;;;;5104013;28;20046;-74
2024/01/16 08:32:20;;;;;;;16.75;8.25;;;;;;;;;;5101325;28;20024;-74
2024/01/16 08:34:45;;;;;;;14.10;8.20;;;;;;;;;;5102827;28;20020;-74
2024/01/16 08:37:10;;;;;;;14.27;8.25;;;;;;;;;;5104434;28;20012;-74
2024/01/16 08:39:36;;;;;;;14.63;8.43;;;;;;;;;;5100760;28;20546;-74
2024/01/16 08:42:03;;;;;;;17.25;8.60;;;;;;;;;;5108547;28;20298;-74
2024/01/16 08:44:28;;;;;;;13.38;7.90;;;;;;;;;;5100802;28;20375;-74
2024/01/16 08:46:54;;;;;;;17.20;8.40;;;;;;;;;;5106243;28;20020;-74
2024/01/16 08:49:19;;;;;;;15.23;9.10;;;;;;;;;;5100441;28;20180;-74
2024/01/16 08:51:45;;;;;;;15.35;8.15;;;;;;;;;;5106697;28;20028;-74
2024/01/16 08:54:10;;;;;;;13.18;8.73;;;;;;;;;;5103291;28;20016;-74
2024/01/16 08:56:35;;;;;;;20.52;8.85;;;;;;;;;;5105266;28;20038;-74
2024/01/16 08:59:00;;;;;;;14.67;8.30;;;;;;;;;;5102242;28;20398;-74
2024/01/16 09:01:25;;;;;;;18.73;8.73;;;;;;;;;;5102880;28;20296;-74
2024/01/16 09:03:51;;;;;;;12.88;7.82;;;;;;;;;;5103817;28;20034;-74
2024/01/16 09:06:16;;;;;;;14.45;8.23;;;;;;;;;;5102158;28;20016;-74
2024/01/16 09:08:42;;;;;;;12.87;7.87;;;;;;;;;;5102861;28;20030;-74
2024/01/16 09:11:07;;;;;;;15.13;8.45;;;;;;;;;;5101838;28;20266;-74
2024/01/16 09:13:33;;;;;;;21.63;8.45;;;;;;;;;;5102954;28;20026;-74
2024/01/16 09:15:58;;;;;;;15.48;7.88;;;;;;;;;;5103471;28;20036;-74
2024/01/16 09:18:24;;;;;;;14.80;7.80;;;;;;;;;;5106660;28;20018;-74
2024/01/16 09:20:49;;;;;;;19.15;8.60;;;;;;;;;;5106421;28;20265;-74
2024/01/16 09:23:14;;;;;;;18.95;8.63;;;;;;;;;;5107687;28;20062;-74
2024/01/16 09:25:40;;;;;;;16.70;7.75;;;;;;;;;;5104669;28;20122;-74
2024/01/16 09:28:06;;;;;;;16.35;7.57;;;;;;;;;;5106536;28;20091;-74
2024/01/16 09:30:33;;;;;;;16.40;8.35;;;;;;;;;;5104769;28;20016;-74
2024/01/16 09:32:58;;;;;;;14.65;8.57;;;;;;;;;;5106913;27;20459;-74
2024/01/16 09:35:23;;;;;;;21.17;8.83;;;;;;;;;;5104782;28;20020;-74
2024/01/16 09:37:48;;;;;;;15.67;8.17;;;;;;;;;;5106005;28;20357;-74
2024/01/16 09:40:13;;;;;;;14.43;8.10;;;;;;;;;;5107274;28;20270;-74
2024/01/16 09:42:40;;;;;;;14.38;8.88;;;;;;;;;;5103965;28;20297;-74
2024/01/16 09:45:05;;;;;;;18.73;8.75;;;;;;;;;;5107010;28;20022;-74
2024/01/16 09:47:31;;;;;;;17.10;8.55;;;;;;;;;;5106303;28;20024;-74
2024/01/16 09:49:57;;;;;;;15.40;8.25;;;;;;;;;;5104985;28;20482;-74
2024/01/16 09:52:22;;;;;;;14.90;7.60;;;;;;;;;;5111705;27;20015;-74
2024/01/16 09:54:48;;;;;;;17.52;8.60;;;;;;;;;;5103674;28;20535;-74
2024/01/16 09:57:14;;;;;;;13.25;8.25;;;;;;;;;;5109215;28;20047;-74
2024/01/16 09:59:40;;;;;;;17.40;8.18;;;;;;;;;;5095858;28;20430;-74
2024/01/16 10:02:06;;;;;;;11.75;7.55;;;;;;;;;;5109909;28;20015;-74
2024/01/16 10:04:32;;;;;;;14.48;8.05;;;;;;;;;;5102821;28;20020;-74
2024/01/16 10:06:58;;;;;;;15.10;8.80;;;;;;;;;;5110013;28;20028;-74
2024/01/16 10:09:23;;;;;;;15.18;8.10;;;;;;;;;;5103468;28;20178;-74
2024/01/16 10:11:49;;;;;;;15.88;8.30;;;;;;;;;;5107305;28;20019;-74
2024/01/16 10:14:15;;;;;;;14.27;7.53;;;;;;;;;;5105513;28;20071;-74
2024/01/16 10:17:05;;;;;;;12.02;7.97;;;;;;;;;;5104632;28;20523;-74
2024/01/16 10:19:30;;;;;;;14.52;7.88;;;;;;;;;;5111774;28;20067;-75
2024/01/16 10:22:03;;;;;;;10.85;8.15;;;;;;;;;;5097292;28;20056;-74
2024/01/16 10:24:28;;;;;;;14.48;7.78;;;;;;;;;;5103930;28;20367;-74
2024/01/16 10:27:00;;;;;;;11.57;8.40;;;;;;;;;;5106731;28;20016;-74
2024/01/16 10:29:25;;;;;;;15.30;8.40;;;;;;;;;;5102621;28;20039;-74
2024/01/16 10:31:50;;;;;;;15.65;8.57;;;;;;;;;;5107278;28;20502;-74
2024/01/16 10:34:20;;;;;;;15.83;8.07;;;;;;;;;;5103045;28;20115;-74
2024/01/16 10:36:45;;;;;;;13.35;7.93;;;;;;;;;;5108598;28;20768;-75
2024/01/16 10:39:11;;;;;;;13.03;8.07;;;;;;;;;;5102259;28;20050;-74
2024/01/16 10:41:37;;;;;;;12.73;8.13;;;;;;;;;;5109309;28;20262;-74
2024/01/16 10:44:07;;;;;;;16.17;8.75;;;;;;;;;;5102246;28;20020;-74
2024/01/16 10:46:32;;;;;;;12.48;7.40;;;;;;;;;;5107280;28;20028;-74
2024/01/16 10:49:01;;;;;;;15.20;8.05;;;;;;;;;;5103330;28;20539;-74
2024/01/16 10:51:27;;;;;;;18.83;8.52;;;;;;;;;;5106248;28;20019;-75
2024/01/16 10:53:55;;;;;;;13.35;8.23;;;;;;;;;;5107474;28;20031;-74
2024/01/16 10:56:21;;;;;;;11.05;7.82;;;;;;;;;;5104606;28;20548;-75
2024/01/16 10:58:50;;;;;;;15.18;7.22;;;;;;;;;;5105728;28;20162;-74
2024/01/16 11:01:16;;;;;;;17.58;7.85;;;;;;;;;;5104101;28;20026;-75
2024/01/16 11:03:49;;;;;;;11.68;7.55;;;;;;;;;;5105190;28;20035;-74
2024/01/16 11:06:14;;;;;;;12.77;7.47;;;;;;;;;;5103195;28;20012;-75
2024/01/16 11:08:40;;;;;;;21.42;7.80;;;;;;;;;;5105412;28;20043;-74
2024/01/16 11:11:07;;;;;;;13.35;7.78;;;;;;;;;;5103763;28;20024;-74
2024/01/16 11:13:34;;;;;;;12.93;7.53;;;;;;;;;;5104733;28;20015;-74
2024/01/16 11:15:59;;;;;;;15.52;8.05;;;;;;;;;;5105225;28;20136;-74
2024/01/16 11:18:24;;;;;;;13.45;8.10;;;;;;;;;;5106204;28;20479;-75
2024/01/16 11:20:50;;;;;;;11.68;7.40;;;;;;;;;;5101900;28;20028;-75
2024/01/16 11:23:16;;;;;;;14.95;7.45;;;;;;;;;;5104685;28;20110;-75
2024/01/16 11:25:41;;;;;;;10.57;6.85;;;;;;;;;;5102142;28;20016;-75
2024/01/16 11:28:11;;;;;;;10.88;6.90;;;;;;;;;;5104287;28;20356;-75
2024/01/16 11:30:36;;;;;;;13.38;7.10;;;;;;;;;;5102405;28;20026;-75
2024/01/16 11:33:01;;;;;;;13.73;7.22;;;;;;;;;;5104494;28;20023;-75
2024/01/16 11:35:33;;;;;;;11.18;7.38;;;;;;;;;;5102079;28;20034;-74
2024/01/16 11:38:16;;;;;;;10.77;7.45;;;;;;;;;;5100056;28;20519;-74
2024/01/16 11:40:41;;;;;;;15.32;8.18;;;;;;;;;;5102412;28;20044;-75
2024/01/16 11:43:25;;;;;;;15.32;7.28;;;;;;;;;;5104147;28;20436;-75
2024/01/16 11:45:50;;;;;;;9.68;6.30;;;;;;;;;;5100345;28;20111;-75
2024/01/16 11:48:16;;;;;;;13.45;7.03;;;;;;;;;;5100841;28;20099;-75
2024/01/16 11:50:42;;;;;;;13.45;7.50;;;;;;;;;;5102659;28;20031;-75
2024/01/16 11:53:08;;;;;;;11.95;7.07;;;;;;;;;;5107976;28;20515;-75
2024/01/16 11:55:35;;;;;;;12.20;7.30;;;;;;;;;;5104006;28;20016;-74
2024/01/16 11:58:10;;;;;;;12.23;6.97;;;;;;;;;;5102096;28;20055;-75
2024/01/16 12:00:36;;;;;;;15.35;6.88;;;;;;;;;;5104739;28;20054;-75
2024/01/16 12:03:03;;;;;;;12.70;7.22;;;;;;;;;;5101789;28;20063;-75
2024/01/16 12:05:28;;;;;;;13.02;7.43;;;;;;;;;;5104809;28;20073;-74
2024/01/16 12:07:54;;;;;;;13.15;7.38;;;;;;;;;;5103670;28;20016;-75
2024/01/16 12:10:21;;;;;;;12.30;6.95;;;;;;;;;;5102963;28;20027;-75
2024/01/16 12:12:47;;;;;;;11.80;7.65;;;;;;;;;;5105495;28;20024;-75
2024/01/16 12:15:30;;;;;;;14.45;7.47;;;;;;;;;;5101660;28;20057;-75
2024/01/16 12:17:59;;;;;;;13.73;7.28;;;;;;;;;;5104775;28;20043;-75
2024/01/16 12:20:25;;;;;;;13.43;7.28;;;;;;;;;;5101545;28;20012;-75
2024/01/16 12:22:54;;;;;;;16.10;8.10;;;;;;;;;;5104057;28;20131;-75
2024/01/16 12:25:20;;;;;;;12.77;8.40;;;;;;;;;;5100799;28;20016;-75
2024/01/16 12:27:46;;;;;;;11.27;7.72;;;;;;;;;;5103927;28;20016;-75
2024/01/16 12:30:12;;;;;;;17.60;8.70;;;;;;;;;;5105213;28;20027;-75
2024/01/16 12:32:38;;;;;;;14.30;8.10;;;;;;;;;;5097074;28;20016;-75
2024/01/16 12:35:04;;;;;;;11.00;7.70;;;;;;;;;;5103903;28;20082;-74
2024/01/16 12:37:29;;;;;;;14.00;8.02;;;;;;;;;;5100906;28;20107;-75
2024/01/16 12:39:57;;;;;;;15.35;7.93;;;;;;;;;;5104119;28;20095;-75
2024/01/16 12:42:22;;;;;;;13.35;8.20;;;;;;;;;;5103209;28;20039;-75
2024/01/16 12:44:47;;;;;;;11.73;6.50;;;;;;;;;;5101384;28;20024;-75
2024/01/16 12:47:15;;;;;;;9.98;5.88;;;;;;;;;;5105660;28;20502;-75
2024/01/16 12:49:42;;;;;;;13.70;6.47;;;;;;;;;;5100676;28;20020;-75
2024/01/16 12:52:21;;;;;;;8.77;5.53;;;;;;;;;;5103524;28;20019;-75
2024/01/16 12:54:47;;;;;;;15.52;6.47;;;;;;;;;;5104695;28;20433;-75
2024/01/16 12:57:16;;;;;;;11.23;6.53;;;;;;;;;;5111022;28;20044;-74
2024/01/16 12:59:41;;;;;;;9.70;5.70;;;;;;;;;;5103558;28;20528;-75
2024/01/16 13:02:07;;;;;;;9.00;5.80;;;;;;;;;;5111604;28;20032;-75
2024/01/16 13:04:32;;;;;;;9.95;5.78;;;;;;;;;;5104502;28;20277;-75
2024/01/16 13:07:01;;;;;;;14.45;6.15;;;;;;;;;;5110706;28;20069;-75
2024/01/16 13:09:26;;;;;;;8.70;5.15;;;;;;;;;;5106513;28;20106;-75
2024/01/16 13:11:54;;;;;;;13.88;6.10;;;;;;;;;;5114935;28;20462;-75
2024/01/16 13:14:22;;;;;;;13.07;6.10;;;;;;;;;;5108705;28;20026;-75
2024/01/16 13:16:48;;;;;;;12.50;6.30;;;;;;;;;;5106007;28;20471;-75
2024/01/16 13:19:17;;;;;;;9.63;5.63;;;;;;;;;;5104510;28;20039;-75
2024/01/16 13:21:42;;;;;;;8.82;5.57;;;;;;;;;;5108312;28;20016;-74
2024/01/16 13:24:08;;;;;;;11.15;6.13;;;;;;;;;;5104234;28;20437;-75
2024/01/16 13:26:33;;;;;;;9.35;5.75;;;;;;;;;;5110202;28;20020;-74
2024/01/16 13:28:58;;;;;;;15.82;6.78;;;;;;;;;;5100428;28;20024;-75
2024/01/16 13:31:23;;;;;;;12.20;6.53;;;;;;;;;;5110593;28;20015;-75
2024/01/16 13:33:49;;;;;;;13.23;7.37;;;;;;;;;;5103081;28;20031;-75
2024/01/16 13:36:14;;;;;;;16.03;7.47;;;;;;;;;;5108684;28;20270;-74
2024/01/16 13:38:39;;;;;;;10.48;5.53;;;;;;;;;;5103010;28;20855;-74
2024/01/16 13:41:05;;;;;;;11.27;6.80;;;;;;;;;;5105518;28;20011;-74
2024/01/16 13:43:30;;;;;;;12.18;7.03;;;;;;;;;;5107363;28;20686;-74
2024/01/16 13:45:55;;;;;;;11.63;7.03;;;;;;;;;;5105008;28;20016;-74
2024/01/16 13:48:21;;;;;;;11.40;6.28;;;;;;;;;;5106362;28;20352;-74
2024/01/16 13:50:46;;;;;;;12.30;6.30;;;;;;;;;;5104885;28;20386;-74
2024/01/16 13:53:13;;;;;;;11.93;6.78;;;;;;;;;;5111069;28;20056;-74
2024/01/16 13:55:39;;;;;;;11.90;6.38;;;;;;;;;;5105851;28;20020;-74
2024/01/16 13:58:04;;;;;;;13.65;6.60;;;;;;;;;;5105358;28;20115;-74
2024/01/16 14:00:30;;;;;;;11.50;6.80;;;;;;;;;;5107116;28;20127;-74
2024/01/16 14:02:55;;;;;;;10.25;6.63;;;;;;;;;;5104009;28;20301;-75
2024/01/16 14:05:21;;;;;;;12.77;6.25;;;;;;;;;;5105446;28;20020;-75
2024/01/16 14:07:50;;;;;;;11.50;7.13;;;;;;;;;;5107090;28;20035;-75
2024/01/16 14:10:16;;;;;;;12.52;6.68;;;;;;;;;;5111954;28;20016;-75
2024/01/16 14:12:45;;;;;;;10.07;6.78;;;;;;;;;;5108402;28;20376;-74
2024/01/16 14:15:18;;;;;;;11.70;6.50;;;;;;;;;;5110813;28;20028;-75
2024/01/16 14:17:44;;;;;;;11.30;6.25;;;;;;;;;;5107617;28;20023;-75
2024/01/16 14:20:12;;;;;;;14.07;7.18;;;;;;;;;;5112182;28;20028;-75